Terminal Aerodrome Forecast
Issued by NWS Sterling, VA

Home | Current Version | Previous Version | Text Only | Print | Product List | Glossary On
Versions: 1 2 3 4 5 6 7 8 9 10 11 12 13 14 15 16 17 18 19 20 21 22 23 24 25
248
FTUS41 KLWX 171508 AAA
TAFDCA
TAF AMD
KDCA 171508Z 1715/1812 17004KT P6SM SCT040 BKN250
     FM171800 18007KT P6SM VCTS SCT045CB BKN150
     FM180200 17006KT P6SM SCT045 BKN250=

USA.gov is the U.S. government's official web portal to all federal, state and local government web resources and services.